Time,TemperatureF,DewpointF,PressureIn,WindDirection,WindDirectionDegrees,WindSpeedMPH,WindSpeedGustMPH,Humidity,HourlyPrecipIn,Conditions,Clouds,dailyrainin,SolarRadiationWatts/m^2,SoftwareType,DateUTC
2013-07-29 00:03:00,51.0,48.0,-100.00,NNW,338,3.0,14.0,89,-99.99,,,0.21,54.000000,,2013-07-29 00:03:00,
2013-07-29 00:12:00,51.0,48.0,-100.00,NNW,338,3.0,14.0,89,-99.99,,,0.21,54.000000,,2013-07-29 00:12:00,
2013-07-29 00:22:00,51.0,48.0,-100.00,NNW,338,3.0,14.0,89,-99.99,,,0.21,54.000000,,2013-07-29 00:22:00,
2013-07-29 00:32:00,51.0,48.0,-100.00,NNW,338,3.0,14.0,89,-99.99,,,0.21,54.000000,,2013-07-29 00:32:00,
2013-07-29 00:40:00,52.0,45.0,-100.00,West,262,6.0,11.0,78,0.01,,,0.22,158.000000,,2013-07-29 00:40:00,
2013-07-29 01:27:00,52.0,45.0,-100.00,West,262,6.0,11.0,78,0.01,,,0.22,158.000000,,2013-07-29 01:27:00,
2013-07-29 01:34:00,52.0,45.0,-100.00,West,262,6.0,11.0,78,0.01,,,0.22,158.000000,,2013-07-29 01:34:00,
2013-07-29 01:40:00,51.0,46.0,-100.00,South,178,8.0,21.0,83,0.00,,,0.22,249.000000,,2013-07-29 01:40:00,
2013-07-29 02:14:00,51.0,46.0,-100.00,South,178,8.0,21.0,83,0.00,,,0.22,249.000000,,2013-07-29 02:14:00,
2013-07-29 02:36:00,51.0,46.0,-100.00,South,178,8.0,21.0,83,0.00,,,0.22,249.000000,,2013-07-29 02:36:00,
2013-07-29 02:40:00,52.0,42.0,-100.00,SW,225,13.0,19.0,69,0.00,,,0.22,39.000000,,2013-07-29 02:40:00,
2013-07-29 03:03:00,52.0,42.0,-100.00,SW,225,13.0,19.0,69,0.00,,,0.22,39.000000,,2013-07-29 03:03:00,
2013-07-29 03:16:00,52.0,42.0,-100.00,SW,225,13.0,19.0,69,0.00,,,0.22,39.000000,,2013-07-29 03:16:00,
2013-07-29 03:24:00,52.0,42.0,-100.00,SW,225,13.0,19.0,69,0.00,,,0.22,39.000000,,2013-07-29 03:24:00,
2013-07-29 03:36:00,52.0,42.0,-100.00,SW,225,13.0,19.0,69,0.00,,,0.22,39.000000,,2013-07-29 03:36:00,
2013-07-29 03:40:00,50.0,39.0,-100.00,North,5,1.0,15.0,66,0.00,,,0.22,1.000000,,2013-07-29 03:40:00,
2013-07-29 04:12:00,50.0,39.0,-100.00,North,5,1.0,15.0,66,0.00,,,0.22,1.000000,,2013-07-29 04:12:00,
2013-07-29 04:22:00,50.0,39.0,-100.00,North,5,1.0,15.0,66,0.00,,,0.22,1.000000,,2013-07-29 04:22:00,
2013-07-29 04:32:00,50.0,39.0,-100.00,North,5,1.0,15.0,66,0.00,,,0.22,1.000000,,2013-07-29 04:32:00,
2013-07-29 04:40:00,49.0,48.0,-100.00,NW,310,5.0,14.0,96,0.00,,,0.22,0.000000,,2013-07-29 04:40:00,
2013-07-29 05:02:00,49.0,48.0,-100.00,NW,310,5.0,14.0,96,0.00,,,0.22,0.000000,,2013-07-29 05:02:00,
2013-07-29 05:12:00,49.0,48.0,-100.00,NW,310,5.0,14.0,96,0.00,,,0.22,0.000000,,2013-07-29 05:12:00,
2013-07-29 05:22:00,49.0,48.0,-100.00,NW,310,5.0,14.0,96,0.00,,,0.22,0.000000,,2013-07-29 05:22:00,
2013-07-29 05:32:00,49.0,48.0,-100.00,NW,310,5.0,14.0,96,0.00,,,0.22,0.000000,,2013-07-29 05:32:00,
2013-07-29 05:40:00,46.0,45.0,-100.00,SSW,199,4.0,8.0,97,0.00,,,0.22,0.000000,,2013-07-29 05:40:00,
2013-07-29 06:02:00,46.0,45.0,-100.00,SSW,199,4.0,8.0,97,0.00,,,0.22,0.000000,,2013-07-29 06:02:00,
2013-07-29 06:12:00,46.0,45.0,-100.00,SSW,199,4.0,8.0,97,0.00,,,0.22,0.000000,,2013-07-29 06:12:00,
2013-07-29 06:22:00,46.0,45.0,-100.00,SSW,199,4.0,8.0,97,0.00,,,0.22,0.000000,,2013-07-29 06:22:00,
2013-07-29 06:32:00,46.0,45.0,-100.00,SSW,199,4.0,8.0,97,0.00,,,0.22,0.000000,,2013-07-29 06:32:00,
2013-07-29 06:40:00,49.0,37.0,-100.00,SW,227,5.0,9.0,64,0.00,,,0.22,0.000000,,2013-07-29 06:40:00,
2013-07-29 07:22:00,49.0,37.0,-100.00,SW,227,5.0,9.0,64,0.00,,,0.22,0.000000,,2013-07-29 07:22:00,
2013-07-29 07:33:00,49.0,37.0,-100.00,SW,227,5.0,9.0,64,0.00,,,0.22,0.000000,,2013-07-29 07:33:00,
2013-07-29 07:40:00,51.0,38.0,-100.00,SW,221,7.0,11.0,61,0.00,,,0.22,0.000000,,2013-07-29 07:40:00,
2013-07-29 08:12:00,51.0,38.0,-100.00,SW,221,7.0,11.0,61,0.00,,,0.22,0.000000,,2013-07-29 08:12:00,
2013-07-29 08:22:00,51.0,38.0,-100.00,SW,221,7.0,11.0,61,0.00,,,0.22,0.000000,,2013-07-29 08:22:00,
2013-07-29 08:33:00,51.0,38.0,-100.00,SW,221,7.0,11.0,61,0.00,,,0.22,0.000000,,2013-07-29 08:33:00,
2013-07-29 08:40:00,48.0,38.0,-100.00,South,178,3.0,9.0,69,0.00,,,0.22,0.000000,,2013-07-29 08:40:00,
2013-07-29 09:02:00,48.0,38.0,-100.00,South,178,3.0,9.0,69,0.00,,,0.22,0.000000,,2013-07-29 09:02:00,
2013-07-29 09:12:00,48.0,38.0,-100.00,South,178,3.0,9.0,69,0.00,,,0.22,0.000000,,2013-07-29 09:12:00,
2013-07-29 09:22:00,48.0,38.0,-100.00,South,178,3.0,9.0,69,0.00,,,0.22,0.000000,,2013-07-29 09:22:00,
2013-07-29 09:33:00,48.0,38.0,-100.00,South,178,3.0,9.0,69,0.00,,,0.22,0.000000,,2013-07-29 09:33:00,
2013-07-29 10:14:00,48.0,37.0,-100.00,SSW,195,6.0,13.0,66,0.00,,,0.22,0.000000,,2013-07-29 10:14:00,
2013-07-29 10:24:00,48.0,37.0,-100.00,SSW,195,6.0,13.0,66,0.00,,,0.22,0.000000,,2013-07-29 10:24:00,
2013-07-29 10:40:00,49.0,37.0,-100.00,South,187,7.0,10.0,64,0.00,,,0.22,0.000000,,2013-07-29 10:40:00,
2013-07-29 11:05:00,49.0,37.0,-100.00,South,187,7.0,10.0,64,0.00,,,0.22,0.000000,,2013-07-29 11:05:00,
2013-07-29 11:15:00,49.0,37.0,-100.00,South,187,7.0,10.0,64,0.00,,,0.22,0.000000,,2013-07-29 11:15:00,
2013-07-29 11:24:00,49.0,37.0,-100.00,South,187,7.0,10.0,64,0.00,,,0.22,0.000000,,2013-07-29 11:24:00,
2013-07-29 11:40:00,48.0,37.0,-100.00,South,176,6.0,9.0,65,0.00,,,0.22,0.000000,,2013-07-29 11:40:00,
2013-07-29 12:14:00,48.0,37.0,-100.00,South,176,6.0,9.0,65,0.00,,,0.22,0.000000,,2013-07-29 12:14:00,
2013-07-29 12:25:00,48.0,37.0,-100.00,South,176,6.0,9.0,65,0.00,,,0.22,0.000000,,2013-07-29 12:25:00,
2013-07-29 12:35:00,48.0,37.0,-100.00,South,176,6.0,9.0,65,0.00,,,0.22,0.000000,,2013-07-29 12:35:00,
2013-07-29 12:40:00,48.0,36.0,-100.00,SSW,203,2.0,9.0,64,0.00,,,0.22,12.000000,,2013-07-29 12:40:00,
2013-07-29 13:17:00,48.0,36.0,-100.00,SSW,203,2.0,9.0,64,0.00,,,0.22,12.000000,,2013-07-29 13:17:00,
2013-07-29 13:26:00,48.0,36.0,-100.00,SSW,203,2.0,9.0,64,0.00,,,0.22,12.000000,,2013-07-29 13:26:00,
2013-07-29 13:36:00,48.0,36.0,-100.00,SSW,203,2.0,9.0,64,0.00,,,0.22,12.000000,,2013-07-29 13:36:00,
2013-07-29 13:40:00,55.0,39.0,-100.00,NNE,26,2.0,6.0,55,0.00,,,0.22,186.000000,,2013-07-29 13:40:00,
2013-07-29 14:12:00,55.0,39.0,-100.00,NNE,26,2.0,6.0,55,0.00,,,0.22,186.000000,,2013-07-29 14:12:00,
2013-07-29 14:27:00,55.0,39.0,-100.00,NNE,26,2.0,6.0,55,0.00,,,0.22,186.000000,,2013-07-29 14:27:00,
2013-07-29 14:35:00,55.0,39.0,-100.00,NNE,26,2.0,6.0,55,0.00,,,0.22,186.000000,,2013-07-29 14:35:00,
2013-07-29 14:40:00,50.0,44.0,-100.00,North,354,3.0,8.0,81,0.00,,,0.22,266.000000,,2013-07-29 14:40:00,
2013-07-29 15:07:00,50.0,44.0,-100.00,North,354,3.0,8.0,81,0.00,,,0.22,266.000000,,2013-07-29 15:07:00,
2013-07-29 15:14:00,50.0,44.0,-100.00,North,354,3.0,8.0,81,0.00,,,0.22,266.000000,,2013-07-29 15:14:00,
2013-07-29 15:24:00,50.0,44.0,-100.00,North,354,3.0,8.0,81,0.00,,,0.22,266.000000,,2013-07-29 15:24:00,
2013-07-29 15:36:00,50.0,44.0,-100.00,North,354,3.0,8.0,81,0.00,,,0.22,266.000000,,2013-07-29 15:36:00,
2013-07-29 15:40:00,51.0,45.0,-100.00,NNW,348,3.0,8.0,81,0.00,,,0.22,220.000000,,2013-07-29 15:40:00,
2013-07-29 16:06:00,51.0,45.0,-100.00,NNW,348,3.0,8.0,81,0.00,,,0.22,220.000000,,2013-07-29 16:06:00,
2013-07-29 16:13:00,51.0,45.0,-100.00,NNW,348,3.0,8.0,81,0.00,,,0.22,220.000000,,2013-07-29 16:13:00,
2013-07-29 16:23:00,51.0,45.0,-100.00,NNW,348,3.0,8.0,81,0.00,,,0.22,220.000000,,2013-07-29 16:23:00,
2013-07-29 16:37:00,51.0,45.0,-100.00,NNW,348,3.0,8.0,81,0.00,,,0.22,220.000000,,2013-07-29 16:37:00,
2013-07-29 16:40:00,54.0,47.0,-100.00,North,5,2.0,6.0,77,0.00,,,0.22,441.000000,,2013-07-29 16:40:00,
2013-07-29 17:07:00,54.0,47.0,-100.00,North,5,2.0,6.0,77,0.00,,,0.22,441.000000,,2013-07-29 17:07:00,
2013-07-29 17:13:00,54.0,47.0,-100.00,North,5,2.0,6.0,77,0.00,,,0.22,441.000000,,2013-07-29 17:13:00,
2013-07-29 17:39:00,54.0,47.0,-100.00,North,5,2.0,6.0,77,0.00,,,0.22,441.000000,,2013-07-29 17:39:00,
2013-07-29 17:40:00,59.0,47.0,-100.00,NNE,24,2.0,7.0,65,0.00,,,0.22,880.000000,,2013-07-29 17:40:00,
2013-07-29 18:06:00,59.0,47.0,-100.00,NNE,24,2.0,7.0,65,0.00,,,0.22,880.000000,,2013-07-29 18:06:00,
2013-07-29 18:14:00,59.0,47.0,-100.00,NNE,24,2.0,7.0,65,0.00,,,0.22,880.000000,,2013-07-29 18:14:00,
2013-07-29 18:26:00,59.0,47.0,-100.00,NNE,24,2.0,7.0,65,0.00,,,0.22,880.000000,,2013-07-29 18:26:00,
2013-07-29 18:34:00,59.0,47.0,-100.00,NNE,24,2.0,7.0,65,0.00,,,0.22,880.000000,,2013-07-29 18:34:00,
2013-07-29 18:40:00,53.0,47.0,-100.00,ENE,74,3.0,8.0,80,0.00,,,0.17,468.000000,,2013-07-29 18:40:00,
2013-07-29 19:03:00,53.0,47.0,-100.00,ENE,74,3.0,8.0,80,0.00,,,0.17,468.000000,,2013-07-29 19:03:00,
2013-07-29 19:15:00,53.0,47.0,-100.00,ENE,74,3.0,8.0,80,0.00,,,0.17,468.000000,,2013-07-29 19:15:00,
2013-07-29 19:25:00,53.0,47.0,-100.00,ENE,74,3.0,8.0,80,0.00,,,0.17,468.000000,,2013-07-29 19:25:00,
2013-07-29 19:36:00,53.0,47.0,-100.00,ENE,74,3.0,8.0,80,0.00,,,0.17,468.000000,,2013-07-29 19:36:00,
2013-07-29 19:40:00,57.0,48.0,-100.00,East,80,4.0,9.0,72,0.00,,,0.05,573.000000,,2013-07-29 19:40:00,
2013-07-29 20:06:00,57.0,48.0,-100.00,East,80,4.0,9.0,72,0.00,,,0.05,573.000000,,2013-07-29 20:06:00,
2013-07-29 20:15:00,57.0,48.0,-100.00,East,80,4.0,9.0,72,0.00,,,0.05,573.000000,,2013-07-29 20:15:00,
2013-07-29 20:24:00,57.0,48.0,-100.00,East,80,4.0,9.0,72,0.00,,,0.05,573.000000,,2013-07-29 20:24:00,
2013-07-29 20:34:00,57.0,48.0,-100.00,East,80,4.0,9.0,72,0.00,,,0.05,573.000000,,2013-07-29 20:34:00,
2013-07-29 20:40:00,60.0,47.0,-100.00,East,82,6.0,12.0,63,0.00,,,0.05,999.000000,,2013-07-29 20:40:00,
2013-07-29 21:17:00,60.0,47.0,-100.00,East,82,6.0,12.0,63,0.00,,,0.05,999.000000,,2013-07-29 21:17:00,
2013-07-29 21:24:00,60.0,47.0,-100.00,East,82,6.0,12.0,63,0.00,,,0.05,999.000000,,2013-07-29 21:24:00,
2013-07-29 21:34:00,60.0,47.0,-100.00,East,82,6.0,12.0,63,0.00,,,0.05,999.000000,,2013-07-29 21:34:00,
2013-07-29 21:40:00,63.0,51.0,-100.00,NE,49,5.0,14.0,64,0.00,,,0.05,846.000000,,2013-07-29 21:40:00,
2013-07-29 22:15:00,63.0,51.0,-100.00,NE,49,5.0,14.0,64,0.00,,,0.05,846.000000,,2013-07-29 22:15:00,
2013-07-29 22:25:00,63.0,51.0,-100.00,NE,49,5.0,14.0,64,0.00,,,0.05,846.000000,,2013-07-29 22:25:00,
2013-07-29 22:40:00,64.0,50.0,-100.00,NE,39,3.0,10.0,60,0.00,,,0.05,739.000000,,2013-07-29 22:40:00,
2013-07-29 23:14:00,64.0,50.0,-100.00,NE,39,3.0,10.0,60,0.00,,,0.05,739.000000,,2013-07-29 23:14:00,
2013-07-29 23:26:00,64.0,50.0,-100.00,NE,39,3.0,10.0,60,0.00,,,0.05,739.000000,,2013-07-29 23:26:00,
2013-07-29 23:34:00,64.0,50.0,-100.00,NE,39,3.0,10.0,60,0.00,,,0.05,739.000000,,2013-07-29 23:34:00,
2013-07-29 23:40:00,60.0,48.0,-100.00,NNE,26,4.0,12.0,64,0.00,,,0.01,478.000000,,2013-07-29 23:40:00,